createdAt,value
2022-12-27T15:58:12.209Z,20.96
2022-12-27T15:59:16.364Z,20.96
2022-12-27T16:00:20.582Z,20.95
2022-12-27T16:01:27.873Z,20.97
2022-12-27T16:02:33.184Z,20.97
2022-12-27T16:03:38.222Z,20.94
2022-12-27T16:04:42.641Z,20.96
2022-12-27T16:05:46.794Z,20.97
2022-12-27T16:06:51.011Z,20.96
2022-12-27T16:07:55.403Z,20.96
2022-12-27T16:08:59.579Z,20.93
2022-12-27T16:10:03.727Z,20.94
2022-12-27T16:11:07.892Z,20.94
2022-12-27T16:12:12.041Z,20.93
2022-12-27T16:13:16.216Z,20.91
2022-12-27T16:14:20.361Z,20.92
2022-12-27T16:15:24.477Z,20.92
2022-12-27T16:16:28.724Z,20.9
2022-12-27T16:17:33.116Z,20.91
2022-12-27T16:18:37.266Z,20.89
2022-12-27T16:19:41.397Z,20.9
2022-12-27T16:20:45.567Z,20.9
2022-12-27T16:21:49.692Z,20.9
2022-12-27T16:22:53.848Z,20.89
2022-12-27T16:23:58.025Z,20.88
2022-12-27T16:25:02.179Z,20.86
2022-12-27T16:26:06.315Z,20.88
2022-12-27T16:27:10.459Z,20.85
2022-12-27T16:28:14.621Z,20.87
2022-12-27T16:29:18.830Z,20.84
2022-12-27T16:30:22.969Z,20.84
2022-12-27T16:31:27.211Z,20.86
2022-12-27T16:32:31.641Z,20.86
2022-12-27T16:33:35.756Z,20.83
2022-12-27T16:34:40.225Z,20.83
2022-12-27T16:35:44.352Z,20.84
2022-12-27T16:36:48.490Z,20.84
2022-12-27T16:37:52.600Z,20.84
2022-12-27T16:38:56.767Z,20.83
2022-12-27T16:40:00.955Z,20.81
2022-12-27T16:41:05.093Z,20.82
2022-12-27T16:42:09.242Z,20.8
2022-12-27T16:43:13.399Z,20.8
2022-12-27T16:44:17.571Z,20.82
2022-12-27T16:45:21.702Z,20.81
2022-12-27T16:46:25.866Z,20.8
2022-12-27T16:47:30.189Z,20.81
2022-12-27T16:48:34.407Z,20.81
2022-12-27T16:49:38.631Z,20.8
2022-12-27T16:50:42.779Z,20.8
2022-12-27T16:51:47.002Z,20.79
2022-12-27T16:52:51.131Z,20.79
2022-12-27T16:53:55.247Z,20.76
2022-12-27T16:54:59.433Z,20.78
2022-12-27T16:56:03.618Z,20.76
2022-12-27T16:57:07.864Z,20.76
2022-12-27T16:58:12.027Z,20.77
2022-12-27T16:59:16.176Z,20.76
2022-12-27T17:00:20.560Z,20.73
2022-12-27T17:01:26.642Z,20.75
2022-12-27T17:02:38.009Z,20.75
2022-12-27T17:03:45.009Z,20.75
2022-12-27T17:04:49.227Z,20.74
2022-12-27T17:06:22.033Z,20.73
2022-12-27T17:07:37.336Z,20.72
2022-12-27T17:08:41.461Z,20.72
2022-12-27T17:09:45.603Z,20.73
2022-12-27T17:10:49.762Z,20.73
2022-12-27T17:11:53.907Z,20.65
2022-12-27T17:12:58.061Z,20.78
2022-12-27T17:14:02.175Z,20.81
2022-12-27T17:15:06.449Z,20.9
2022-12-27T17:16:10.762Z,20.96
2022-12-27T17:17:15.155Z,21.03
2022-12-27T17:18:19.341Z,21.09
2022-12-27T17:19:23.474Z,21.15
2022-12-27T17:20:27.620Z,21.17
2022-12-27T17:21:31.762Z,21.22
2022-12-27T17:22:36.157Z,21.26
2022-12-27T17:23:40.590Z,21.27
2022-12-27T17:24:45.109Z,21.31
2022-12-27T17:25:49.259Z,21.33
2022-12-27T17:26:53.423Z,21.36
2022-12-27T17:27:57.638Z,21.36
2022-12-27T17:29:01.793Z,21.41
2022-12-27T17:30:05.972Z,21.41
2022-12-27T17:31:10.749Z,21.49
2022-12-27T17:32:18.185Z,21.49
2022-12-27T17:33:22.337Z,21.51
2022-12-27T17:34:26.524Z,21.48
2022-12-27T17:35:30.811Z,21.55
2022-12-27T17:36:35.156Z,21.58
2022-12-27T17:37:39.314Z,21.57
2022-12-27T17:38:45.767Z,21.65
2022-12-27T17:39:53.109Z,21.66
2022-12-27T17:40:57.483Z,21.66
2022-12-27T17:42:01.852Z,21.7
2022-12-27T17:43:06.690Z,21.72
2022-12-27T17:44:10.912Z,21.77
2022-12-27T17:45:15.509Z,21.8
2022-12-27T17:46:19.861Z,21.8
2022-12-27T17:47:24.019Z,21.84
2022-12-27T17:48:30.916Z,21.86
2022-12-27T17:49:35.232Z,21.9
2022-12-27T17:50:39.679Z,21.93
2022-12-27T17:51:43.904Z,21.95
2022-12-27T17:52:58.453Z,21.99
2022-12-27T17:54:02.988Z,22
2022-12-27T17:55:12.891Z,22
2022-12-27T17:56:17.074Z,22
2022-12-27T17:57:24.100Z,22.07
2022-12-27T17:58:28.251Z,22.07
2022-12-27T17:59:32.500Z,22.13
2022-12-27T18:00:36.837Z,22.11
2022-12-27T18:01:41.306Z,22.08
2022-12-27T18:02:46.285Z,22.07
